Chicago, IL (60625)

3:57 PM CST on January 16, 2017 (GMT -0600)
Albany Park | | Change Station
Active Advisory: Marine Fog Advisory

Elev 600 ft 41.97 °N, 87.71 °W | Updated 12 seconds ago

Rain
Rain
36.5 °F
Feels Like 36 °F
N
2.0
Wind Variable Wind from ESE
Gusts 2.5 mph

Today
High -- | Low -- °F
--% Chance of Precip.
Yesterday
High -- | Low -- °F
Precip. -- in
Pressure 30.08 in
Visibility 2.5 miles
Clouds Mostly Cloudy 500 ft
Overcast 1900 ft
Windchill 36 °F
Dew Point 33 °F
Humidity 87%
Rainfall 0.56 in
Snow Depth Not available.
7:15 AM 4:46 PM
Waning Gibbous, 78% visible
METAR KORD 162151Z 07007KT 2 1/2SM -RA BR BKN005 OVC019 02/02 A3005 RMK AO2 SLP184 P0010 T00220017
Pressure 30.08 in
Visibility 2.5 miles
Clouds Mostly Cloudy 500 ft
Overcast 1900 ft
Windchill 36 °F
Dew Point 33 °F
Humidity 87%
Rainfall 0.56 in
Snow Depth Not available.
7:15 AM 4:46 PM
Waning Gibbous, 78% visible
METAR KORD 162151Z 07007KT 2 1/2SM -RA BR BKN005 OVC019 02/02 A3005 RMK AO2 SLP184 P0010 T00220017

Get Your Daily Forecast Email!

Thanks for signing up!

Be on the lookout for a verification email in your inbox.

You'll start receiving the daily forecast at 8 AM.

×

10-Day Weather Forecast

Almanac

Astronomy

Jan. 16, 2017 Rise Set
Actual Time
Civil Twilight
Nautical Twilight
Astronomical Twilight
Moon
Length of Visible Light
Length of Day
Tomorrow will be .
, % of the Moon is Illuminated

Today's Extremes

State Highs State Lows

Community

WunderPhotos

Upload Photos

1,962,540 photos uploaded!

WunderBlog® & News

Nearby

Air Quality

  Air Quality AQ Index Pollutant
Not available.

Snow Depth

Station Depth Elevation

Earthquake Activity

City Distance Mag. Time & Date
Minimum magnitude displayed is 2.5.

Coastal Water Temperatures

Place Temperature

Stations

Nearby Weather Stations

Station Location Temp. Windchill Dew Point Humidity Wind Precip. Elev Updated Type
                   

Watches & Warnings

Marine Fog Advisory
Issued: 2:52 PM CST Jan. 16, 2017 – National Weather Service

... Dense fog advisory in effect until 9 am CST Tuesday...

The National Weather Service in Chicago has issued a dense fog
advisory... which is in effect until 9 am CST Tuesday.

* Visibility... less than 1/2 mile.

Precautionary/preparedness actions...

A dense fog advisory means visibilities will frequently be
reduced to less than one mile. Inexperienced mariners...
especially those operating smaller vessels should avoid
navigating in these conditions.




Jee